Time;durP1;ratioP1;P1;durP2;ratioP2;P2;SDS_P1;SDS_P2;PMS_P1;PMS_P2;Temp;Humidity;BMP_temperature;BMP_pressure;BME280_temperature;BME280_humidity;BME280_pressure;Samples;Min_cycle;Max_cycle;Signal;HPM_P1;HPM_P2
2023/07/09 04:01:45;;;;;;;;;;;21.70;94.50;;;;;;6900210;23;2907;-78
2023/07/09 04:04:47;;;;;;;;;;;21.70;94.40;;;;;;6193443;28;1387;-75
2023/07/09 04:07:49;;;;;;;;;;;21.70;94.30;;;;;;6202611;28;1019;-76
2023/07/09 04:10:51;;;;;;;;;;;21.80;93.70;;;;;;6201604;28;1902;-77
2023/07/09 04:13:52;;;;;;;;;;;21.90;93.70;;;;;;6191719;28;1372;-76
2023/07/09 04:16:56;;;;;;;;;;;21.90;93.80;;;;;;6177086;28;1030;-77
2023/07/09 04:19:58;;;;;;;;;;;21.90;94.00;;;;;;6177811;28;1035;-76
2023/07/09 04:22:59;;;;;;;;;;;21.90;94.40;;;;;;6188926;28;1396;-76
2023/07/09 04:26:02;;;;;;;;;;;21.90;94.10;;;;;;6177703;28;1085;-78
2023/07/09 04:29:05;;;;;;;;;;;21.90;94.70;;;;;;6177531;28;1097;-75
2023/07/09 04:32:09;;;;;;;;;;;22.00;94.10;;;;;;6177380;28;1981;-77
2023/07/09 04:35:12;;;;;;;;;;;21.90;94.20;;;;;;6196407;28;1516;-76
2023/07/09 04:38:14;;;;;;;;;;;21.90;94.40;;;;;;6201659;28;1062;-78
2023/07/09 04:41:15;;;;;;;;;;;21.90;94.40;;;;;;6201441;28;1055;-76
2023/07/09 04:44:17;;;;;;;;;;;21.90;94.50;;;;;;6193213;28;1419;-76
2023/07/09 04:47:20;;;;;;;;;;;21.80;94.70;;;;;;6197343;28;1428;-76
2023/07/09 04:50:22;;;;;;;;;;;21.70;95.00;;;;;;6200826;28;1985;-74
2023/07/09 04:53:24;;;;;;;;;;;21.80;95.10;;;;;;6199833;28;1455;-77
2023/07/09 04:56:29;;;;;;;;;;;21.80;95.10;;;;;;6198271;28;1483;-77
2023/07/09 04:59:32;;;;;;;;;;;21.90;94.90;;;;;;6193320;28;1418;-77
2023/07/09 05:02:35;;;;;;;;;;;21.90;94.90;;;;;;6193554;28;2540;-76
2023/07/09 05:05:43;;;;;;;;;;;22.00;94.70;;;;;;6200945;28;1089;-75
2023/07/09 05:08:44;;;;;;;;;;;22.10;94.80;;;;;;6200722;28;1018;-75
2023/07/09 05:11:46;;;;;;;;;;;22.20;94.70;;;;;;6197875;28;1906;-76
2023/07/09 05:14:48;;;;;;;;;;;22.30;94.70;;;;;;6200748;28;1087;-77
2023/07/09 05:17:52;;;;;;;;;;;22.30;94.30;;;;;;6199844;28;1357;-74
2023/07/09 05:20:53;;;;;;;;;;;22.30;94.30;;;;;;6199154;28;1444;-79
2023/07/09 05:23:55;;;;;;;;;;;22.30;94.60;;;;;;6200720;28;1018;-78
2023/07/09 05:26:57;;;;;;;;;;;22.30;94.60;;;;;;6200669;28;1035;-77
2023/07/09 05:30:00;;;;;;;;;;;22.40;94.70;;;;;;6202516;28;1898;-77
2023/07/09 05:33:03;;;;;;;;;;;22.40;94.80;;;;;;6163000;28;1427;-77
2023/07/09 05:36:05;;;;;;;;;;;22.40;94.40;;;;;;6166618;28;3177;-77
2023/07/09 05:39:06;;;;;;;;;;;22.40;94.20;;;;;;6163142;28;2711;-75
2023/07/09 05:42:09;;;;;;;;;;;22.40;94.10;;;;;;6176347;28;1596;-77
2023/07/09 05:45:11;;;;;;;;;;;22.50;94.30;;;;;;6175782;28;2443;-77
2023/07/09 05:48:14;;;;;;;;;;;22.50;94.80;;;;;;6175929;28;1534;-77
2023/07/09 05:51:16;;;;;;;;;;;22.60;94.40;;;;;;6199714;28;1992;-76
2023/07/09 05:54:18;;;;;;;;;;;22.50;94.10;;;;;;6198082;28;1694;-76
2023/07/09 05:57:20;;;;;;;;;;;22.50;94.40;;;;;;6177132;28;2291;-76
2023/07/09 06:00:21;;;;;;;;;;;22.50;94.30;;;;;;6183062;28;1785;-77
2023/07/09 06:03:26;;;;;;;;;;;22.60;94.50;;;;;;6185385;28;2396;-77
2023/07/09 06:06:28;;;;;;;;;;;22.60;94.20;;;;;;6156648;28;3133;-77
2023/07/09 06:09:29;;;;;;;;;;;22.70;94.10;;;;;;6173557;28;2199;-77
2023/07/09 06:12:31;;;;;;;;;;;22.60;93.50;;;;;;6174228;28;1911;-76
2023/07/09 06:15:34;;;;;;;;;;;22.60;93.40;;;;;;6177575;28;1145;-79
2023/07/09 06:18:39;;;;;;;;;;;22.40;93.70;;;;;;6194973;28;1917;-76
2023/07/09 06:21:41;;;;;;;;;;;22.60;93.90;;;;;;6182797;28;2394;-74
2023/07/09 06:24:43;;;;;;;;;;;22.70;93.60;;;;;;6177822;28;1115;-76
2023/07/09 06:27:44;;;;;;;;;;;22.90;93.50;;;;;;6180910;28;1493;-76
2023/07/09 06:30:46;;;;;;;;;;;22.90;93.30;;;;;;6189263;28;1902;-77
2023/07/09 06:33:50;;;;;;;;;;;22.90;93.30;;;;;;6186853;28;1547;-77
2023/07/09 06:36:51;;;;;;;;;;;23.00;93.30;;;;;;6200389;28;1015;-74
2023/07/09 06:39:53;;;;;;;;;;;22.60;99.90;;;;;;6179610;28;1449;-71
2023/07/09 06:42:55;;;;;;;;;;;22.00;99.90;;;;;;6179621;28;2802;-72
2023/07/09 06:45:58;;;;;;;;;;;21.60;99.90;;;;;;6187894;28;2734;-71
2023/07/09 06:49:01;;;;;;;;;;;21.30;99.90;;;;;;6199772;28;2137;-72
2023/07/09 06:52:03;;;;;;;;;;;21.20;99.90;;;;;;6193937;28;1992;-73
2023/07/09 06:55:06;;;;;;;;;;;21.40;99.90;;;;;;6200476;28;1469;-71
2023/07/09 06:58:08;;;;;;;;;;;21.50;99.90;;;;;;6182404;28;1588;-71
2023/07/09 07:01:11;;;;;;;;;;;21.70;99.90;;;;;;6195010;28;2031;-72
2023/07/09 07:04:15;;;;;;;;;;;22.00;99.90;;;;;;6184815;28;1473;-71
2023/07/09 07:07:17;;;;;;;;;;;22.20;99.90;;;;;;6204421;28;1098;-71
2023/07/09 07:10:18;;;;;;;;;;;22.40;99.80;;;;;;6203826;28;1105;-72
2023/07/09 07:13:20;;;;;;;;;;;22.70;99.90;;;;;;6199732;28;1992;-72
2023/07/09 07:16:22;;;;;;;;;;;22.80;99.90;;;;;;6179326;28;1113;-73
2023/07/09 07:19:25;;;;;;;;;;;23.00;99.30;;;;;;6191227;28;1747;-72
2023/07/09 07:22:27;;;;;;;;;;;23.20;99.20;;;;;;6202958;28;1083;-72
2023/07/09 07:25:30;;;;;;;;;;;23.20;98.30;;;;;;6194334;28;1472;-71
2023/07/09 07:28:32;;;;;;;;;;;23.40;98.00;;;;;;6204737;28;1071;-74
2023/07/09 07:31:33;;;;;;;;;;;23.50;96.90;;;;;;6203403;28;1919;-70
2023/07/09 07:34:36;;;;;;;;;;;23.70;96.60;;;;;;6176986;28;3000;-74
2023/07/09 07:37:38;;;;;;;;;;;23.80;96.40;;;;;;6197408;28;1429;-72
2023/07/09 07:40:40;;;;;;;;;;;23.90;96.10;;;;;;6202796;28;1099;-73
2023/07/09 07:43:41;;;;;;;;;;;24.00;95.80;;;;;;6183795;28;1555;-73
2023/07/09 07:46:43;;;;;;;;;;;24.10;95.50;;;;;;6183244;28;1512;-73
2023/07/09 07:49:46;;;;;;;;;;;24.20;95.00;;;;;;6179209;28;1075;-72
2023/07/09 07:52:48;;;;;;;;;;;24.40;95.10;;;;;;6178710;28;1911;-71
2023/07/09 07:55:49;;;;;;;;;;;24.50;94.30;;;;;;6179021;28;1437;-73
2023/07/09 07:58:51;;;;;;;;;;;24.60;94.00;;;;;;6194554;28;1516;-72
2023/07/09 08:01:53;;;;;;;;;;;24.70;93.10;;;;;;6202401;28;1250;-74
2023/07/09 08:04:56;;;;;;;;;;;24.90;92.80;;;;;;6194902;28;1651;-71
2023/07/09 08:07:57;;;;;;;;;;;24.90;92.30;;;;;;6183945;28;2787;-72
2023/07/09 08:11:04;;;;;;;;;;;25.10;91.50;;;;;;6188344;28;1899;-72
2023/07/09 08:14:06;;;;;;;;;;;25.20;91.00;;;;;;6202113;28;1019;-72
2023/07/09 08:17:08;;;;;;;;;;;25.30;91.00;;;;;;6193586;28;1472;-76
2023/07/09 08:20:11;;;;;;;;;;;25.40;91.00;;;;;;6167816;28;1449;-76
2023/07/09 08:23:13;;;;;;;;;;;25.60;89.20;;;;;;6180093;28;1715;-71
2023/07/09 08:26:15;;;;;;;;;;;25.70;88.20;;;;;;6192297;28;2360;-71
2023/07/09 08:29:17;;;;;;;;;;;25.70;88.50;;;;;;6187106;28;1485;-71
2023/07/09 08:32:19;;;;;;;;;;;26.00;88.60;;;;;;6180133;28;1907;-73
2023/07/09 08:35:22;;;;;;;;;;;26.10;89.10;;;;;;6160835;28;1579;-73
2023/07/09 08:38:24;;;;;;;;;;;26.20;87.10;;;;;;6193778;28;1441;-73
2023/07/09 08:41:36;;;;;;;;;;;26.30;85.40;;;;;;6201138;28;1082;-72
2023/07/09 08:44:47;;;;;;;;;;;26.30;85.30;;;;;;6182349;28;2780;-72
2023/07/09 08:47:53;;;;;;;;;;;26.40;84.90;;;;;;6197171;28;1636;-72
2023/07/09 08:51:00;;;;;;;;;;;26.60;83.40;;;;;;6201431;28;1974;-70
2023/07/09 08:54:02;;;;;;;;;;;26.70;82.70;;;;;;6201348;28;1043;-73
2023/07/09 08:57:15;;;;;;;;;;;26.70;83.10;;;;;;6194559;28;1504;-71
2023/07/09 09:00:19;;;;;;;;;;;26.70;82.80;;;;;;6200772;28;1064;-74
2023/07/09 09:03:29;;;;;;;;;;;26.70;82.30;;;;;;6200845;28;1044;-71
2023/07/09 09:06:35;;;;;;;;;;;26.90;82.40;;;;;;6185121;28;1485;-72
2023/07/09 09:09:40;;;;;;;;;;;26.90;83.00;;;;;;6199729;28;1473;-71
2023/07/09 09:12:57;;;;;;;;;;;27.00;82.00;;;;;;6200947;28;1875;-71
2023/07/09 09:16:06;;;;;;;;;;;27.00;80.80;;;;;;6194979;28;1453;-72
2023/07/09 09:19:17;;;;;;;;;;;27.10;80.30;;;;;;6190996;28;1501;-71
2023/07/09 09:22:23;;;;;;;;;;;27.10;79.30;;;;;;6160243;28;1580;-72
2023/07/09 09:25:28;;;;;;;;;;;27.40;78.10;;;;;;6197222;28;1465;-72
2023/07/09 09:28:30;;;;;;;;;;;27.50;76.40;;;;;;6193140;28;1544;-72
